sensor_id;sensor_type;location;lat;lon;timestamp;P1;durP1;ratioP1;P2;durP2;ratioP2
28714;SDS011;15886;49.170;14.572;2022-12-20T00:01:14;93.03;;;37.75;;
28714;SDS011;15886;49.170;14.572;2022-12-20T00:03:43;90.80;;;40.25;;
28714;SDS011;15886;49.170;14.572;2022-12-20T00:06:12;103.15;;;46.75;;
28714;SDS011;15886;49.170;14.572;2022-12-20T00:08:40;101.68;;;46.42;;
28714;SDS011;15886;49.170;14.572;2022-12-20T00:11:08;98.00;;;37.80;;
28714;SDS011;15886;49.170;14.572;2022-12-20T00:13:37;92.47;;;37.50;;
28714;SDS011;15886;49.170;14.572;2022-12-20T00:16:09;86.55;;;35.95;;
28714;SDS011;15886;49.170;14.572;2022-12-20T00:18:38;90.70;;;36.53;;
28714;SDS011;15886;49.170;14.572;2022-12-20T00:21:09;91.82;;;37.53;;
28714;SDS011;15886;49.170;14.572;2022-12-20T00:23:38;88.97;;;38.67;;
28714;SDS011;15886;49.170;14.572;2022-12-20T00:26:08;95.07;;;39.75;;
28714;SDS011;15886;49.170;14.572;2022-12-20T00:28:37;87.00;;;36.60;;
28714;SDS011;15886;49.170;14.572;2022-12-20T00:31:06;100.88;;;38.28;;
28714;SDS011;15886;49.170;14.572;2022-12-20T00:33:35;94.30;;;37.85;;
28714;SDS011;15886;49.170;14.572;2022-12-20T00:36:04;92.13;;;37.97;;
28714;SDS011;15886;49.170;14.572;2022-12-20T00:38:33;87.30;;;35.30;;
28714;SDS011;15886;49.170;14.572;2022-12-20T00:41:09;97.10;;;37.28;;
28714;SDS011;15886;49.170;14.572;2022-12-20T00:43:38;87.82;;;37.88;;
28714;SDS011;15886;49.170;14.572;2022-12-20T00:46:09;91.18;;;37.90;;
28714;SDS011;15886;49.170;14.572;2022-12-20T00:48:37;93.32;;;37.65;;
28714;SDS011;15886;49.170;14.572;2022-12-20T00:51:07;95.50;;;39.88;;
28714;SDS011;15886;49.170;14.572;2022-12-20T00:53:35;96.20;;;40.95;;
28714;SDS011;15886;49.170;14.572;2022-12-20T00:56:04;99.13;;;39.20;;
28714;SDS011;15886;49.170;14.572;2022-12-20T00:58:34;88.35;;;39.08;;
28714;SDS011;15886;49.170;14.572;2022-12-20T01:01:02;96.20;;;38.13;;
28714;SDS011;15886;49.170;14.572;2022-12-20T01:03:31;92.60;;;38.10;;
28714;SDS011;15886;49.170;14.572;2022-12-20T01:06:00;83.97;;;37.97;;
28714;SDS011;15886;49.170;14.572;2022-12-20T01:08:29;84.28;;;36.67;;
28714;SDS011;15886;49.170;14.572;2022-12-20T01:11:05;82.97;;;36.10;;
28714;SDS011;15886;49.170;14.572;2022-12-20T01:13:35;84.55;;;33.42;;
28714;SDS011;15886;49.170;14.572;2022-12-20T01:16:18;88.55;;;34.85;;
28714;SDS011;15886;49.170;14.572;2022-12-20T01:18:47;89.15;;;33.80;;
28714;SDS011;15886;49.170;14.572;2022-12-20T01:21:17;90.07;;;35.38;;
28714;SDS011;15886;49.170;14.572;2022-12-20T01:23:45;78.75;;;33.55;;
28714;SDS011;15886;49.170;14.572;2022-12-20T01:26:15;83.68;;;34.55;;
28714;SDS011;15886;49.170;14.572;2022-12-20T01:28:44;84.78;;;33.92;;
28714;SDS011;15886;49.170;14.572;2022-12-20T01:31:14;89.22;;;33.97;;
28714;SDS011;15886;49.170;14.572;2022-12-20T01:33:43;84.47;;;32.97;;
28714;SDS011;15886;49.170;14.572;2022-12-20T01:36:16;80.35;;;34.60;;
28714;SDS011;15886;49.170;14.572;2022-12-20T01:38:44;77.60;;;32.63;;
28714;SDS011;15886;49.170;14.572;2022-12-20T01:41:17;87.40;;;34.35;;
28714;SDS011;15886;49.170;14.572;2022-12-20T01:43:56;86.32;;;34.47;;
28714;SDS011;15886;49.170;14.572;2022-12-20T01:46:25;87.40;;;35.47;;
28714;SDS011;15886;49.170;14.572;2022-12-20T01:49:13;94.32;;;35.95;;
28714;SDS011;15886;49.170;14.572;2022-12-20T01:51:53;84.65;;;34.13;;
28714;SDS011;15886;49.170;14.572;2022-12-20T01:54:30;88.82;;;35.63;;
28714;SDS011;15886;49.170;14.572;2022-12-20T01:57:12;82.80;;;35.00;;
28714;SDS011;15886;49.170;14.572;2022-12-20T01:59:42;80.18;;;34.88;;
28714;SDS011;15886;49.170;14.572;2022-12-20T02:02:11;94.90;;;35.67;;
28714;SDS011;15886;49.170;14.572;2022-12-20T02:04:39;91.90;;;34.75;;
28714;SDS011;15886;49.170;14.572;2022-12-20T02:07:16;90.97;;;36.78;;
28714;SDS011;15886;49.170;14.572;2022-12-20T02:09:45;88.35;;;35.78;;
28714;SDS011;15886;49.170;14.572;2022-12-20T02:12:15;88.95;;;37.70;;
28714;SDS011;15886;49.170;14.572;2022-12-20T02:14:56;95.82;;;35.92;;
28714;SDS011;15886;49.170;14.572;2022-12-20T02:17:43;90.60;;;35.92;;
28714;SDS011;15886;49.170;14.572;2022-12-20T02:25:36;91.60;;;36.25;;
28714;SDS011;15886;49.170;14.572;2022-12-20T02:30:47;95.38;;;40.20;;
28714;SDS011;15886;49.170;14.572;2022-12-20T02:33:16;95.85;;;38.10;;
28714;SDS011;15886;49.170;14.572;2022-12-20T02:35:46;97.55;;;39.58;;
28714;SDS011;15886;49.170;14.572;2022-12-20T02:40:52;108.93;;;39.45;;
28714;SDS011;15886;49.170;14.572;2022-12-20T02:43:22;95.65;;;38.17;;
28714;SDS011;15886;49.170;14.572;2022-12-20T02:46:09;89.68;;;39.03;;
28714;SDS011;15886;49.170;14.572;2022-12-20T02:48:38;90.55;;;37.95;;
28714;SDS011;15886;49.170;14.572;2022-12-20T02:51:07;100.55;;;38.42;;
28714;SDS011;15886;49.170;14.572;2022-12-20T02:53:35;96.07;;;37.80;;
28714;SDS011;15886;49.170;14.572;2022-12-20T02:56:10;79.55;;;34.15;;
28714;SDS011;15886;49.170;14.572;2022-12-20T02:58:48;88.68;;;37.90;;
28714;SDS011;15886;49.170;14.572;2022-12-20T03:02:01;91.35;;;37.10;;
28714;SDS011;15886;49.170;14.572;2022-12-20T03:04:09;94.07;;;37.58;;
28714;SDS011;15886;49.170;14.572;2022-12-20T03:06:38;89.95;;;37.15;;
28714;SDS011;15886;49.170;14.572;2022-12-20T03:09:07;86.43;;;36.58;;
28714;SDS011;15886;49.170;14.572;2022-12-20T03:11:36;104.78;;;38.75;;
28714;SDS011;15886;49.170;14.572;2022-12-20T03:14:05;95.55;;;37.88;;
28714;SDS011;15886;49.170;14.572;2022-12-20T03:16:34;98.30;;;38.50;;
28714;SDS011;15886;49.170;14.572;2022-12-20T03:19:02;96.28;;;37.10;;
28714;SDS011;15886;49.170;14.572;2022-12-20T03:21:31;94.47;;;36.67;;
28714;SDS011;15886;49.170;14.572;2022-12-20T03:23:59;88.97;;;34.95;;
28714;SDS011;15886;49.170;14.572;2022-12-20T03:26:27;100.72;;;36.97;;
28714;SDS011;15886;49.170;14.572;2022-12-20T03:28:59;95.30;;;42.47;;
28714;SDS011;15886;49.170;14.572;2022-12-20T03:31:28;105.05;;;40.85;;
28714;SDS011;15886;49.170;14.572;2022-12-20T03:33:57;93.47;;;36.10;;
28714;SDS011;15886;49.170;14.572;2022-12-20T03:36:26;101.13;;;37.80;;
28714;SDS011;15886;49.170;14.572;2022-12-20T03:38:58;90.78;;;37.03;;
28714;SDS011;15886;49.170;14.572;2022-12-20T03:41:30;91.72;;;36.33;;
28714;SDS011;15886;49.170;14.572;2022-12-20T03:43:59;92.70;;;34.17;;
28714;SDS011;15886;49.170;14.572;2022-12-20T03:46:27;97.15;;;37.65;;
28714;SDS011;15886;49.170;14.572;2022-12-20T03:48:56;92.18;;;35.72;;
28714;SDS011;15886;49.170;14.572;2022-12-20T03:51:24;85.35;;;35.28;;
28714;SDS011;15886;49.170;14.572;2022-12-20T03:53:53;82.47;;;34.58;;
28714;SDS011;15886;49.170;14.572;2022-12-20T03:56:28;93.68;;;37.38;;
28714;SDS011;15886;49.170;14.572;2022-12-20T03:58:57;95.78;;;35.20;;
28714;SDS011;15886;49.170;14.572;2022-12-20T04:01:26;98.00;;;36.17;;
28714;SDS011;15886;49.170;14.572;2022-12-20T04:03:55;87.35;;;36.28;;
28714;SDS011;15886;49.170;14.572;2022-12-20T04:06:24;97.82;;;37.17;;
28714;SDS011;15886;49.170;14.572;2022-12-20T04:08:52;87.05;;;36.67;;
28714;SDS011;15886;49.170;14.572;2022-12-20T04:11:28;88.55;;;36.38;;
28714;SDS011;15886;49.170;14.572;2022-12-20T04:14:05;93.18;;;36.35;;
28714;SDS011;15886;49.170;14.572;2022-12-20T04:16:35;99.35;;;37.88;;
28714;SDS011;15886;49.170;14.572;2022-12-20T04:19:04;100.72;;;37.00;;
28714;SDS011;15886;49.170;14.572;2022-12-20T04:21:40;89.47;;;35.35;;
28714;SDS011;15886;49.170;14.572;2022-12-20T04:24:08;98.45;;;38.50;;
28714;SDS011;15886;49.170;14.572;2022-12-20T04:26:59;100.28;;;37.42;;
28714;SDS011;15886;49.170;14.572;2022-12-20T04:29:28;102.80;;;38.83;;
28714;SDS011;15886;49.170;14.572;2022-12-20T04:31:57;104.70;;;41.33;;
28714;SDS011;15886;49.170;14.572;2022-12-20T04:34:26;91.25;;;38.22;;
28714;SDS011;15886;49.170;14.572;2022-12-20T04:36:56;107.28;;;41.03;;
28714;SDS011;15886;49.170;14.572;2022-12-20T04:39:40;101.93;;;39.35;;
28714;SDS011;15886;49.170;14.572;2022-12-20T04:42:18;103.43;;;41.42;;
28714;SDS011;15886;49.170;14.572;2022-12-20T04:44:47;105.78;;;39.90;;
28714;SDS011;15886;49.170;14.572;2022-12-20T04:47:21;100.60;;;39.83;;
28714;SDS011;15886;49.170;14.572;2022-12-20T04:49:51;109.72;;;41.88;;
28714;SDS011;15886;49.170;14.572;2022-12-20T04:52:19;113.45;;;40.13;;
28714;SDS011;15886;49.170;14.572;2022-12-20T04:55:09;94.53;;;37.80;;
28714;SDS011;15886;49.170;14.572;2022-12-20T04:57:37;105.25;;;38.47;;
28714;SDS011;15886;49.170;14.572;2022-12-20T05:00:05;105.15;;;40.85;;
28714;SDS011;15886;49.170;14.572;2022-12-20T05:02:38;105.18;;;39.58;;
28714;SDS011;15886;49.170;14.572;2022-12-20T05:05:10;103.80;;;39.00;;
28714;SDS011;15886;49.170;14.572;2022-12-20T05:07:44;104.50;;;40.65;;
28714;SDS011;15886;49.170;14.572;2022-12-20T05:10:13;105.47;;;39.92;;
28714;SDS011;15886;49.170;14.572;2022-12-20T05:12:44;98.15;;;38.90;;
28714;SDS011;15886;49.170;14.572;2022-12-20T05:15:21;102.70;;;39.40;;
28714;SDS011;15886;49.170;14.572;2022-12-20T05:17:50;105.97;;;40.28;;
28714;SDS011;15886;49.170;14.572;2022-12-20T05:20:18;106.25;;;41.40;;
28714;SDS011;15886;49.170;14.572;2022-12-20T05:22:47;101.82;;;38.05;;
28714;SDS011;15886;49.170;14.572;2022-12-20T05:25:34;105.10;;;38.13;;
28714;SDS011;15886;49.170;14.572;2022-12-20T05:28:23;103.35;;;39.00;;
28714;SDS011;15886;49.170;14.572;2022-12-20T05:30:52;107.43;;;39.97;;
28714;SDS011;15886;49.170;14.572;2022-12-20T05:33:21;116.57;;;41.78;;
28714;SDS011;15886;49.170;14.572;2022-12-20T05:35:51;97.40;;;37.70;;
28714;SDS011;15886;49.170;14.572;2022-12-20T05:38:30;105.68;;;42.10;;
28714;SDS011;15886;49.170;14.572;2022-12-20T05:41:00;106.63;;;39.20;;
28714;SDS011;15886;49.170;14.572;2022-12-20T05:43:28;101.18;;;38.72;;
28714;SDS011;15886;49.170;14.572;2022-12-20T05:45:57;102.10;;;38.40;;
28714;SDS011;15886;49.170;14.572;2022-12-20T05:48:33;98.15;;;37.25;;
28714;SDS011;15886;49.170;14.572;2022-12-20T05:51:01;106.88;;;40.42;;
28714;SDS011;15886;49.170;14.572;2022-12-20T05:53:32;102.47;;;43.72;;
28714;SDS011;15886;49.170;14.572;2022-12-20T05:56:04;117.95;;;44.92;;
28714;SDS011;15886;49.170;14.572;2022-12-20T05:58:35;117.75;;;43.83;;
28714;SDS011;15886;49.170;14.572;2022-12-20T06:01:05;105.40;;;38.97;;
28714;SDS011;15886;49.170;14.572;2022-12-20T06:03:37;101.70;;;42.63;;
28714;SDS011;15886;49.170;14.572;2022-12-20T06:06:11;101.35;;;40.90;;
28714;SDS011;15886;49.170;14.572;2022-12-20T06:08:41;91.72;;;36.65;;
28714;SDS011;15886;49.170;14.572;2022-12-20T06:11:14;114.95;;;47.30;;
28714;SDS011;15886;49.170;14.572;2022-12-20T06:13:52;107.55;;;41.22;;
28714;SDS011;15886;49.170;14.572;2022-12-20T06:16:20;96.40;;;36.20;;
28714;SDS011;15886;49.170;14.572;2022-12-20T06:18:51;97.85;;;37.20;;
28714;SDS011;15886;49.170;14.572;2022-12-20T06:21:20;101.00;;;41.10;;
28714;SDS011;15886;49.170;14.572;2022-12-20T06:23:51;88.38;;;35.28;;
28714;SDS011;15886;49.170;14.572;2022-12-20T06:26:20;92.07;;;35.25;;
28714;SDS011;15886;49.170;14.572;2022-12-20T06:28:49;88.53;;;34.83;;
28714;SDS011;15886;49.170;14.572;2022-12-20T06:31:35;85.88;;;32.50;;
28714;SDS011;15886;49.170;14.572;2022-12-20T06:34:04;88.25;;;34.75;;
28714;SDS011;15886;49.170;14.572;2022-12-20T06:36:34;94.32;;;35.10;;
28714;SDS011;15886;49.170;14.572;2022-12-20T06:39:02;88.65;;;34.20;;
28714;SDS011;15886;49.170;14.572;2022-12-20T06:41:38;91.53;;;36.25;;
28714;SDS011;15886;49.170;14.572;2022-12-20T06:44:06;86.85;;;33.17;;
28714;SDS011;15886;49.170;14.572;2022-12-20T06:46:34;86.22;;;35.60;;
28714;SDS011;15886;49.170;14.572;2022-12-20T06:49:02;88.10;;;34.42;;
28714;SDS011;15886;49.170;14.572;2022-12-20T06:51:31;89.97;;;35.00;;
28714;SDS011;15886;49.170;14.572;2022-12-20T06:54:00;105.05;;;46.78;;
28714;SDS011;15886;49.170;14.572;2022-12-20T06:56:31;91.55;;;33.90;;
28714;SDS011;15886;49.170;14.572;2022-12-20T06:59:04;80.35;;;29.98;;
28714;SDS011;15886;49.170;14.572;2022-12-20T07:01:32;76.35;;;29.20;;
28714;SDS011;15886;49.170;14.572;2022-12-20T07:04:01;73.25;;;29.42;;
28714;SDS011;15886;49.170;14.572;2022-12-20T07:06:29;84.15;;;32.42;;
28714;SDS011;15886;49.170;14.572;2022-12-20T07:08:58;86.93;;;32.83;;
28714;SDS011;15886;49.170;14.572;2022-12-20T07:11:26;84.70;;;30.88;;
28714;SDS011;15886;49.170;14.572;2022-12-20T07:13:55;85.88;;;32.28;;
28714;SDS011;15886;49.170;14.572;2022-12-20T07:16:23;92.57;;;36.83;;
28714;SDS011;15886;49.170;14.572;2022-12-20T07:18:52;86.00;;;33.65;;
28714;SDS011;15886;49.170;14.572;2022-12-20T07:21:21;97.18;;;45.75;;
28714;SDS011;15886;49.170;14.572;2022-12-20T07:23:49;95.45;;;37.80;;
28714;SDS011;15886;49.170;14.572;2022-12-20T07:26:17;92.90;;;38.33;;
28714;SDS011;15886;49.170;14.572;2022-12-20T07:28:45;78.63;;;32.42;;
28714;SDS011;15886;49.170;14.572;2022-12-20T07:31:13;78.80;;;34.47;;
28714;SDS011;15886;49.170;14.572;2022-12-20T07:33:42;92.63;;;35.53;;
28714;SDS011;15886;49.170;14.572;2022-12-20T07:36:10;85.00;;;32.40;;
28714;SDS011;15886;49.170;14.572;2022-12-20T07:38:39;80.65;;;32.75;;
28714;SDS011;15886;49.170;14.572;2022-12-20T07:41:07;85.05;;;32.78;;
28714;SDS011;15886;49.170;14.572;2022-12-20T07:43:35;83.88;;;31.45;;
28714;SDS011;15886;49.170;14.572;2022-12-20T07:46:04;88.22;;;32.88;;
28714;SDS011;15886;49.170;14.572;2022-12-20T07:48:33;82.00;;;33.78;;
28714;SDS011;15886;49.170;14.572;2022-12-20T07:51:05;83.05;;;31.75;;
28714;SDS011;15886;49.170;14.572;2022-12-20T07:53:35;86.72;;;31.02;;
28714;SDS011;15886;49.170;14.572;2022-12-20T07:56:04;80.18;;;30.48;;
28714;SDS011;15886;49.170;14.572;2022-12-20T07:58:33;91.78;;;33.08;;
28714;SDS011;15886;49.170;14.572;2022-12-20T08:01:02;88.85;;;34.67;;
28714;SDS011;15886;49.170;14.572;2022-12-20T08:06:25;106.13;;;47.85;;
28714;SDS011;15886;49.170;14.572;2022-12-20T08:08:54;84.57;;;35.55;;
28714;SDS011;15886;49.170;14.572;2022-12-20T08:11:24;83.25;;;34.28;;
28714;SDS011;15886;49.170;14.572;2022-12-20T08:13:54;81.10;;;30.90;;
28714;SDS011;15886;49.170;14.572;2022-12-20T08:16:24;79.93;;;31.55;;
28714;SDS011;15886;49.170;14.572;2022-12-20T08:18:52;81.78;;;27.85;;
28714;SDS011;15886;49.170;14.572;2022-12-20T08:21:20;77.93;;;28.42;;
28714;SDS011;15886;49.170;14.572;2022-12-20T08:23:48;77.25;;;29.65;;
28714;SDS011;15886;49.170;14.572;2022-12-20T08:26:16;86.85;;;32.63;;
28714;SDS011;15886;49.170;14.572;2022-12-20T08:28:45;91.95;;;34.60;;
28714;SDS011;15886;49.170;14.572;2022-12-20T08:31:13;82.75;;;34.53;;
28714;SDS011;15886;49.170;14.572;2022-12-20T08:33:41;103.22;;;42.25;;
28714;SDS011;15886;49.170;14.572;2022-12-20T08:36:10;105.80;;;40.90;;
28714;SDS011;15886;49.170;14.572;2022-12-20T08:38:39;106.25;;;42.13;;
28714;SDS011;15886;49.170;14.572;2022-12-20T08:41:08;80.93;;;28.95;;
28714;SDS011;15886;49.170;14.572;2022-12-20T08:43:37;77.32;;;29.33;;
28714;SDS011;15886;49.170;14.572;2022-12-20T08:46:06;74.22;;;29.65;;
28714;SDS011;15886;49.170;14.572;2022-12-20T08:48:35;89.95;;;30.05;;
28714;SDS011;15886;49.170;14.572;2022-12-20T08:51:04;80.50;;;32.47;;
28714;SDS011;15886;49.170;14.572;2022-12-20T08:53:33;75.65;;;30.58;;
28714;SDS011;15886;49.170;14.572;2022-12-20T08:56:12;69.00;;;27.20;;
28714;SDS011;15886;49.170;14.572;2022-12-20T08:58:42;62.75;;;26.55;;
28714;SDS011;15886;49.170;14.572;2022-12-20T09:01:11;77.20;;;29.85;;
28714;SDS011;15886;49.170;14.572;2022-12-20T09:03:40;76.32;;;28.20;;
28714;SDS011;15886;49.170;14.572;2022-12-20T09:06:12;94.15;;;37.70;;
28714;SDS011;15886;49.170;14.572;2022-12-20T09:08:41;73.95;;;28.40;;
28714;SDS011;15886;49.170;14.572;2022-12-20T09:11:13;73.85;;;31.85;;
28714;SDS011;15886;49.170;14.572;2022-12-20T09:13:43;89.72;;;38.08;;
28714;SDS011;15886;49.170;14.572;2022-12-20T09:16:12;92.03;;;36.67;;
28714;SDS011;15886;49.170;14.572;2022-12-20T09:18:40;90.88;;;40.70;;
28714;SDS011;15886;49.170;14.572;2022-12-20T09:21:09;78.47;;;31.83;;
28714;SDS011;15886;49.170;14.572;2022-12-20T09:23:37;88.05;;;43.10;;
28714;SDS011;15886;49.170;14.572;2022-12-20T09:26:07;88.18;;;38.47;;
28714;SDS011;15886;49.170;14.572;2022-12-20T09:28:35;75.80;;;34.30;;
28714;SDS011;15886;49.170;14.572;2022-12-20T09:31:05;76.45;;;32.58;;
28714;SDS011;15886;49.170;14.572;2022-12-20T09:33:33;79.93;;;33.47;;
28714;SDS011;15886;49.170;14.572;2022-12-20T09:36:02;70.50;;;29.65;;
28714;SDS011;15886;49.170;14.572;2022-12-20T09:38:30;75.90;;;31.95;;
28714;SDS011;15886;49.170;14.572;2022-12-20T09:41:03;89.05;;;33.90;;
28714;SDS011;15886;49.170;14.572;2022-12-20T09:43:31;87.72;;;34.55;;
28714;SDS011;15886;49.170;14.572;2022-12-20T09:46:01;78.78;;;31.10;;
28714;SDS011;15886;49.170;14.572;2022-12-20T09:48:37;70.43;;;27.83;;
28714;SDS011;15886;49.170;14.572;2022-12-20T10:01:17;70.18;;;25.65;;
28714;SDS011;15886;49.170;14.572;2022-12-20T10:03:50;62.10;;;25.48;;
28714;SDS011;15886;49.170;14.572;2022-12-20T10:06:32;74.40;;;29.05;;
28714;SDS011;15886;49.170;14.572;2022-12-20T10:09:12;78.32;;;31.95;;
28714;SDS011;15886;49.170;14.572;2022-12-20T10:14:29;87.47;;;38.30;;
28714;SDS011;15886;49.170;14.572;2022-12-20T10:17:01;73.57;;;30.17;;
28714;SDS011;15886;49.170;14.572;2022-12-20T10:22:07;65.18;;;27.67;;
28714;SDS011;15886;49.170;14.572;2022-12-20T10:24:37;77.28;;;31.77;;
28714;SDS011;15886;49.170;14.572;2022-12-20T10:27:19;77.00;;;33.10;;
28714;SDS011;15886;49.170;14.572;2022-12-20T10:29:48;78.38;;;32.13;;
28714;SDS011;15886;49.170;14.572;2022-12-20T10:32:17;97.85;;;42.90;;
28714;SDS011;15886;49.170;14.572;2022-12-20T10:34:51;101.00;;;47.20;;
28714;SDS011;15886;49.170;14.572;2022-12-20T10:37:21;129.82;;;58.22;;
28714;SDS011;15886;49.170;14.572;2022-12-20T10:39:51;94.47;;;42.67;;
28714;SDS011;15886;49.170;14.572;2022-12-20T10:42:40;78.05;;;34.45;;
28714;SDS011;15886;49.170;14.572;2022-12-20T10:45:27;87.18;;;41.17;;
28714;SDS011;15886;49.170;14.572;2022-12-20T10:48:03;77.95;;;34.67;;
28714;SDS011;15886;49.170;14.572;2022-12-20T10:50:32;74.90;;;31.00;;
28714;SDS011;15886;49.170;14.572;2022-12-20T10:55:39;82.60;;;31.20;;
28714;SDS011;15886;49.170;14.572;2022-12-20T11:01:12;73.13;;;31.08;;
28714;SDS011;15886;49.170;14.572;2022-12-20T11:03:55;71.25;;;28.90;;
28714;SDS011;15886;49.170;14.572;2022-12-20T11:06:25;68.40;;;27.90;;
28714;SDS011;15886;49.170;14.572;2022-12-20T11:09:09;68.65;;;27.65;;
28714;SDS011;15886;49.170;14.572;2022-12-20T11:11:39;72.32;;;27.30;;
28714;SDS011;15886;49.170;14.572;2022-12-20T11:14:24;63.38;;;26.77;;
28714;SDS011;15886;49.170;14.572;2022-12-20T11:16:53;71.65;;;29.40;;
28714;SDS011;15886;49.170;14.572;2022-12-20T11:19:29;78.43;;;28.42;;
28714;SDS011;15886;49.170;14.572;2022-12-20T11:26:59;73.25;;;27.40;;
28714;SDS011;15886;49.170;14.572;2022-12-20T11:32:32;73.03;;;29.15;;
28714;SDS011;15886;49.170;14.572;2022-12-20T11:35:24;78.70;;;36.30;;
28714;SDS011;15886;49.170;14.572;2022-12-20T11:38:01;82.97;;;39.05;;
28714;SDS011;15886;49.170;14.572;2022-12-20T11:40:36;70.22;;;31.85;;
28714;SDS011;15886;49.170;14.572;2022-12-20T11:51:48;105.53;;;55.45;;
28714;SDS011;15886;49.170;14.572;2022-12-20T11:54:26;92.95;;;43.85;;
28714;SDS011;15886;49.170;14.572;2022-12-20T11:56:57;77.78;;;34.13;;
28714;SDS011;15886;49.170;14.572;2022-12-20T12:02:07;72.90;;;34.65;;
28714;SDS011;15886;49.170;14.572;2022-12-20T12:04:45;91.25;;;36.38;;
28714;SDS011;15886;49.170;14.572;2022-12-20T12:07:19;103.05;;;43.70;;
28714;SDS011;15886;49.170;14.572;2022-12-20T12:12:19;80.80;;;34.88;;
28714;SDS011;15886;49.170;14.572;2022-12-20T12:19:56;99.47;;;40.17;;
28714;SDS011;15886;49.170;14.572;2022-12-20T12:22:28;64.95;;;28.33;;
28714;SDS011;15886;49.170;14.572;2022-12-20T12:24:59;90.05;;;35.80;;
28714;SDS011;15886;49.170;14.572;2022-12-20T12:27:29;86.13;;;35.47;;
28714;SDS011;15886;49.170;14.572;2022-12-20T12:29:57;74.88;;;32.92;;
28714;SDS011;15886;49.170;14.572;2022-12-20T12:32:46;79.35;;;32.13;;
28714;SDS011;15886;49.170;14.572;2022-12-20T12:38:45;89.05;;;36.50;;
28714;SDS011;15886;49.170;14.572;2022-12-20T12:46:51;71.78;;;30.17;;
28714;SDS011;15886;49.170;14.572;2022-12-20T12:49:00;74.35;;;31.13;;
28714;SDS011;15886;49.170;14.572;2022-12-20T12:51:33;82.30;;;32.97;;
28714;SDS011;15886;49.170;14.572;2022-12-20T12:54:11;76.43;;;28.83;;
28714;SDS011;15886;49.170;14.572;2022-12-20T12:56:46;75.15;;;32.47;;
28714;SDS011;15886;49.170;14.572;2022-12-20T13:02:48;100.22;;;47.63;;
28714;SDS011;15886;49.170;14.572;2022-12-20T13:09:52;94.07;;;45.05;;
28714;SDS011;15886;49.170;14.572;2022-12-20T13:20:31;94.97;;;38.45;;
28714;SDS011;15886;49.170;14.572;2022-12-20T13:25:38;78.45;;;31.50;;
28714;SDS011;15886;49.170;14.572;2022-12-20T13:33:42;69.57;;;27.60;;
28714;SDS011;15886;49.170;14.572;2022-12-20T13:43:44;81.43;;;33.55;;
28714;SDS011;15886;49.170;14.572;2022-12-20T13:46:13;97.35;;;39.13;;
28714;SDS011;15886;49.170;14.572;2022-12-20T13:51:24;79.75;;;35.83;;
28714;SDS011;15886;49.170;14.572;2022-12-20T13:59:02;101.57;;;39.22;;
28714;SDS011;15886;49.170;14.572;2022-12-20T14:01:31;78.45;;;32.92;;
28714;SDS011;15886;49.170;14.572;2022-12-20T14:04:02;84.63;;;30.85;;
28714;SDS011;15886;49.170;14.572;2022-12-20T14:06:33;84.80;;;38.67;;
28714;SDS011;15886;49.170;14.572;2022-12-20T14:09:01;88.80;;;39.00;;
28714;SDS011;15886;49.170;14.572;2022-12-20T14:11:34;93.38;;;39.60;;
28714;SDS011;15886;49.170;14.572;2022-12-20T14:14:12;84.05;;;37.88;;
28714;SDS011;15886;49.170;14.572;2022-12-20T14:16:41;78.78;;;31.42;;
28714;SDS011;15886;49.170;14.572;2022-12-20T14:19:13;78.93;;;32.58;;
28714;SDS011;15886;49.170;14.572;2022-12-20T14:21:42;72.25;;;28.25;;
28714;SDS011;15886;49.170;14.572;2022-12-20T14:24:16;76.35;;;31.15;;
28714;SDS011;15886;49.170;14.572;2022-12-20T14:26:45;99.95;;;36.90;;
28714;SDS011;15886;49.170;14.572;2022-12-20T14:29:17;87.38;;;33.60;;
28714;SDS011;15886;49.170;14.572;2022-12-20T14:31:47;94.57;;;37.95;;
28714;SDS011;15886;49.170;14.572;2022-12-20T14:34:26;76.13;;;36.20;;
28714;SDS011;15886;49.170;14.572;2022-12-20T14:39:53;78.47;;;35.58;;
28714;SDS011;15886;49.170;14.572;2022-12-20T14:42:22;84.47;;;38.65;;
28714;SDS011;15886;49.170;14.572;2022-12-20T14:45:04;77.22;;;34.90;;
28714;SDS011;15886;49.170;14.572;2022-12-20T14:47:32;75.70;;;35.17;;
28714;SDS011;15886;49.170;14.572;2022-12-20T14:50:02;80.32;;;32.45;;
28714;SDS011;15886;49.170;14.572;2022-12-20T14:55:01;77.97;;;32.35;;
28714;SDS011;15886;49.170;14.572;2022-12-20T15:13:23;92.35;;;43.00;;
28714;SDS011;15886;49.170;14.572;2022-12-20T15:15:52;84.57;;;35.00;;
28714;SDS011;15886;49.170;14.572;2022-12-20T15:18:20;86.70;;;37.30;;
28714;SDS011;15886;49.170;14.572;2022-12-20T15:21:32;68.20;;;28.83;;
28714;SDS011;15886;49.170;14.572;2022-12-20T15:23:44;78.97;;;38.08;;
28714;SDS011;15886;49.170;14.572;2022-12-20T15:26:17;81.00;;;37.13;;
28714;SDS011;15886;49.170;14.572;2022-12-20T15:28:46;77.65;;;35.00;;
28714;SDS011;15886;49.170;14.572;2022-12-20T15:31:16;76.30;;;33.15;;
28714;SDS011;15886;49.170;14.572;2022-12-20T15:33:45;84.82;;;40.20;;
28714;SDS011;15886;49.170;14.572;2022-12-20T15:36:17;82.45;;;38.13;;
28714;SDS011;15886;49.170;14.572;2022-12-20T15:38:45;81.75;;;34.63;;
28714;SDS011;15886;49.170;14.572;2022-12-20T15:41:35;71.53;;;31.67;;
28714;SDS011;15886;49.170;14.572;2022-12-20T15:44:12;96.45;;;46.13;;
28714;SDS011;15886;49.170;14.572;2022-12-20T15:46:41;85.60;;;41.05;;
28714;SDS011;15886;49.170;14.572;2022-12-20T15:49:16;80.55;;;38.15;;
28714;SDS011;15886;49.170;14.572;2022-12-20T15:51:46;83.53;;;35.70;;
28714;SDS011;15886;49.170;14.572;2022-12-20T15:54:24;88.72;;;44.42;;
28714;SDS011;15886;49.170;14.572;2022-12-20T15:56:54;79.55;;;36.90;;
28714;SDS011;15886;49.170;14.572;2022-12-20T15:59:24;97.18;;;41.17;;
28714;SDS011;15886;49.170;14.572;2022-12-20T16:02:26;86.45;;;35.22;;
28714;SDS011;15886;49.170;14.572;2022-12-20T16:04:55;77.03;;;30.90;;
28714;SDS011;15886;49.170;14.572;2022-12-20T16:07:25;84.68;;;35.28;;
28714;SDS011;15886;49.170;14.572;2022-12-20T16:09:53;81.63;;;33.10;;
28714;SDS011;15886;49.170;14.572;2022-12-20T16:12:24;83.65;;;30.73;;
28714;SDS011;15886;49.170;14.572;2022-12-20T16:14:53;77.70;;;29.13;;
28714;SDS011;15886;49.170;14.572;2022-12-20T16:17:22;82.72;;;34.10;;
28714;SDS011;15886;49.170;14.572;2022-12-20T16:19:51;78.93;;;30.05;;
28714;SDS011;15886;49.170;14.572;2022-12-20T16:22:21;72.43;;;28.42;;
28714;SDS011;15886;49.170;14.572;2022-12-20T16:24:49;77.32;;;30.40;;
28714;SDS011;15886;49.170;14.572;2022-12-20T16:27:18;71.25;;;30.08;;
28714;SDS011;15886;49.170;14.572;2022-12-20T16:29:46;102.85;;;37.72;;
28714;SDS011;15886;49.170;14.572;2022-12-20T16:32:20;94.68;;;37.40;;
28714;SDS011;15886;49.170;14.572;2022-12-20T16:34:52;86.10;;;34.83;;
28714;SDS011;15886;49.170;14.572;2022-12-20T16:37:21;92.13;;;38.63;;
28714;SDS011;15886;49.170;14.572;2022-12-20T16:39:50;97.45;;;41.08;;
28714;SDS011;15886;49.170;14.572;2022-12-20T16:42:18;94.75;;;37.75;;